createdAt,value
2023-03-29T00:02:07.593Z,6.64
2023-03-29T00:04:34.767Z,6.60
2023-03-29T00:07:04.508Z,6.63
2023-03-29T00:09:33.474Z,6.63
2023-03-29T00:12:01.649Z,6.63
2023-03-29T00:14:31.110Z,6.64
2023-03-29T00:16:59.081Z,6.61
2023-03-29T00:19:26.667Z,6.61
2023-03-29T00:21:53.844Z,6.63
2023-03-29T00:24:21.603Z,6.59
2023-03-29T00:26:48.771Z,6.58
2023-03-29T00:29:16.140Z,6.57
2023-03-29T00:31:46.053Z,6.56
2023-03-29T00:34:13.214Z,6.55
2023-03-29T00:36:40.597Z,6.54
2023-03-29T00:39:07.638Z,6.51
2023-03-29T00:41:34.674Z,6.52
2023-03-29T00:44:03.728Z,6.53
2023-03-29T00:46:32.138Z,6.50
2023-03-29T00:49:07.546Z,6.49
2023-03-29T00:51:38.412Z,6.49
2023-03-29T00:54:14.949Z,6.48
2023-03-29T00:56:47.014Z,6.45
2023-03-29T00:59:23.414Z,6.45
2023-03-29T01:01:54.652Z,6.46
2023-03-29T01:04:37.242Z,6.48
2023-03-29T01:07:14.247Z,6.49
2023-03-29T01:09:45.785Z,6.50
2023-03-29T01:12:20.120Z,6.50
2023-03-29T01:14:56.589Z,6.50
2023-03-29T01:17:25.712Z,6.51
2023-03-29T01:19:59.148Z,6.49
2023-03-29T01:22:40.212Z,6.49
2023-03-29T01:25:19.475Z,6.49
2023-03-29T01:27:53.421Z,6.46
2023-03-29T01:30:30.680Z,6.45
2023-03-29T01:33:06.469Z,6.46
2023-03-29T01:35:44.866Z,6.46
2023-03-29T01:39:05.378Z,6.45
2023-03-29T01:42:13.596Z,6.44
2023-03-29T01:44:47.755Z,6.41
2023-03-29T01:47:26.296Z,6.42
2023-03-29T01:49:58.533Z,6.41
2023-03-29T01:52:33.415Z,6.40
2023-03-29T01:55:10.269Z,6.38
2023-03-29T01:57:41.906Z,6.38
2023-03-29T02:00:14.409Z,6.38
2023-03-29T02:02:43.886Z,6.37
2023-03-29T02:05:13.057Z,6.39
2023-03-29T02:07:42.176Z,6.40
2023-03-29T02:10:11.387Z,6.38
2023-03-29T02:12:38.521Z,6.38
2023-03-29T02:15:10.990Z,6.37
2023-03-29T02:17:38.010Z,6.37
2023-03-29T02:20:33.664Z,6.36
2023-03-29T02:23:09.801Z,6.38
2023-03-29T02:25:38.051Z,6.39
2023-03-29T02:28:06.978Z,6.37
2023-03-29T02:30:44.543Z,6.37
2023-03-29T02:33:17.710Z,6.37
2023-03-29T02:36:17.873Z,6.35
2023-03-29T02:38:45.552Z,6.35
2023-03-29T02:41:13.204Z,6.34
2023-03-29T02:43:42.320Z,6.35
2023-03-29T02:46:11.101Z,6.35
2023-03-29T02:48:38.759Z,6.36
2023-03-29T02:51:19.378Z,6.35
2023-03-29T02:54:01.325Z,6.33
2023-03-29T02:56:28.273Z,6.34
2023-03-29T02:58:55.130Z,6.36
2023-03-29T03:01:23.209Z,6.37
2023-03-29T03:03:50.926Z,6.36
2023-03-29T03:06:18.895Z,6.36
2023-03-29T03:08:45.902Z,6.35
2023-03-29T03:11:12.925Z,6.36
2023-03-29T03:13:39.785Z,6.36
2023-03-29T03:16:08.294Z,6.38
2023-03-29T03:18:35.703Z,6.38
2023-03-29T03:21:02.799Z,6.38
2023-03-29T03:23:30.543Z,6.39
2023-03-29T03:25:58.252Z,6.40
2023-03-29T03:28:27.463Z,6.41
2023-03-29T03:30:55.574Z,6.41
2023-03-29T03:33:58.100Z,6.42
2023-03-29T03:36:48.081Z,6.40
2023-03-29T03:39:15.056Z,6.39
2023-03-29T03:41:42.980Z,6.41
2023-03-29T03:44:10.036Z,6.40
2023-03-29T03:46:37.013Z,6.40
2023-03-29T03:49:05.930Z,6.41
2023-03-29T03:51:37.781Z,6.42
2023-03-29T03:54:05.137Z,6.43
2023-03-29T03:56:34.630Z,6.45
2023-03-29T03:59:04.869Z,6.46
2023-03-29T04:01:43.555Z,6.46
2023-03-29T04:04:17.136Z,6.44
2023-03-29T04:07:03.063Z,6.45
2023-03-29T04:09:39.000Z,6.45
2023-03-29T04:12:36.798Z,6.46
2023-03-29T04:15:04.413Z,6.46
2023-03-29T04:17:31.315Z,6.46
2023-03-29T04:20:02.317Z,6.45
2023-03-29T04:22:33.334Z,6.46
2023-03-29T04:25:00.308Z,6.49
2023-03-29T04:27:29.986Z,6.46
2023-03-29T04:29:58.789Z,6.48
2023-03-29T04:32:48.908Z,6.48
2023-03-29T04:35:17.944Z,6.48
2023-03-29T04:37:44.932Z,6.48
2023-03-29T04:40:15.057Z,6.51
2023-03-29T04:42:52.911Z,6.51
2023-03-29T04:45:20.418Z,6.52
2023-03-29T04:48:04.017Z,6.52
2023-03-29T04:50:32.092Z,6.51
2023-03-29T04:53:00.422Z,6.52
2023-03-29T04:55:29.471Z,6.52
2023-03-29T04:58:01.283Z,6.52
2023-03-29T05:00:33.845Z,6.53
2023-03-29T05:03:00.864Z,6.53
2023-03-29T05:05:31.420Z,6.54
2023-03-29T05:08:01.764Z,6.55
2023-03-29T05:10:37.469Z,6.55
2023-03-29T05:13:04.747Z,6.56
2023-03-29T05:15:32.817Z,6.57
2023-03-29T05:18:00.963Z,6.57
2023-03-29T05:20:28.673Z,6.57
2023-03-29T05:22:57.489Z,6.58
2023-03-29T05:25:43.942Z,6.58
2023-03-29T05:28:11.028Z,6.59
2023-03-29T05:30:38.216Z,6.58
2023-03-29T05:33:13.871Z,6.59
2023-03-29T05:35:40.903Z,6.60
2023-03-29T05:38:09.018Z,6.59
2023-03-29T05:40:36.355Z,6.60
2023-03-29T05:43:12.283Z,6.59
2023-03-29T05:45:39.495Z,6.60
2023-03-29T05:48:06.683Z,6.61
2023-03-29T05:50:34.697Z,6.60
2023-03-29T05:53:01.704Z,6.61
2023-03-29T05:55:28.744Z,6.61
2023-03-29T05:57:55.938Z,6.63
2023-03-29T06:00:26.927Z,6.63
2023-03-29T06:03:21.205Z,6.64
2023-03-29T06:05:56.846Z,6.64
2023-03-29T06:08:24.340Z,6.64
2023-03-29T06:11:15.693Z,6.65
2023-03-29T06:14:19.121Z,6.66
2023-03-29T06:16:51.667Z,6.65
2023-03-29T06:19:19.353Z,6.66
2023-03-29T06:21:47.402Z,6.66
2023-03-29T06:24:19.029Z,6.67
2023-03-29T06:26:52.715Z,6.67
2023-03-29T06:29:19.853Z,6.67
2023-03-29T06:31:48.352Z,6.67
2023-03-29T06:34:38.080Z,6.68
2023-03-29T06:37:23.409Z,6.70
2023-03-29T06:39:59.860Z,6.69
2023-03-29T06:42:44.748Z,6.70
2023-03-29T06:45:38.855Z,6.70
2023-03-29T06:48:12.505Z,6.71
2023-03-29T06:50:41.150Z,6.71
2023-03-29T06:53:10.635Z,6.71
2023-03-29T06:55:39.483Z,6.71
2023-03-29T06:58:26.657Z,6.72
2023-03-29T07:01:00.998Z,6.72
2023-03-29T07:03:49.543Z,6.73
2023-03-29T07:06:20.749Z,6.74
2023-03-29T07:08:52.634Z,6.75
2023-03-29T07:11:59.218Z,6.74
2023-03-29T07:14:30.150Z,6.79
2023-03-29T07:16:58.698Z,6.78
2023-03-29T07:19:33.395Z,6.76
2023-03-29T07:22:03.327Z,6.78
2023-03-29T07:24:47.106Z,6.78
2023-03-29T07:27:14.729Z,6.79
2023-03-29T07:29:41.586Z,6.78
2023-03-29T07:32:08.945Z,6.78
2023-03-29T07:34:42.239Z,6.82
2023-03-29T07:37:14.884Z,6.82
2023-03-29T07:39:44.835Z,6.81
2023-03-29T07:42:37.648Z,6.81
2023-03-29T07:45:08.706Z,6.83
2023-03-29T07:47:44.884Z,6.84
2023-03-29T07:50:12.467Z,6.85
2023-03-29T07:52:39.738Z,6.85
2023-03-29T07:55:08.863Z,6.85
2023-03-29T07:58:01.740Z,6.86
2023-03-29T08:00:29.103Z,6.83
2023-03-29T08:03:19.095Z,6.87
2023-03-29T08:05:46.143Z,6.88
2023-03-29T08:08:15.408Z,6.89
2023-03-29T08:11:06.493Z,6.89
2023-03-29T08:13:43.675Z,6.90
2023-03-29T08:16:16.861Z,6.91
2023-03-29T08:18:51.244Z,6.91
2023-03-29T08:21:20.745Z,6.97
2023-03-29T08:23:49.780Z,6.97
2023-03-29T08:26:24.474Z,6.98
2023-03-29T08:28:52.195Z,6.97
2023-03-29T08:31:21.045Z,6.98
2023-03-29T08:33:48.220Z,6.99
2023-03-29T08:36:33.606Z,7.00
2023-03-29T08:39:08.328Z,7.00
2023-03-29T08:41:42.959Z,7.02
2023-03-29T08:44:10.914Z,7.02
2023-03-29T08:47:09.880Z,7.04
2023-03-29T08:49:47.233Z,7.05
2023-03-29T08:52:31.310Z,7.08
2023-03-29T08:55:05.850Z,7.08
2023-03-29T08:57:51.957Z,7.08
2023-03-29T09:01:01.598Z,7.12
2023-03-29T09:03:57.307Z,7.12
2023-03-29T09:06:36.136Z,7.12
2023-03-29T09:09:18.645Z,7.14
2023-03-29T09:11:56.762Z,7.13
2023-03-29T09:14:53.470Z,7.16
2023-03-29T09:17:29.708Z,7.16
2023-03-29T09:20:03.334Z,7.17
2023-03-29T09:22:46.812Z,7.20
2023-03-29T09:25:25.917Z,7.20
2023-03-29T09:28:05.464Z,7.20
2023-03-29T09:31:03.757Z,7.22
2023-03-29T09:33:43.092Z,7.23
2023-03-29T09:36:27.474Z,7.24
2023-03-29T09:38:55.857Z,7.25
2023-03-29T09:41:32.885Z,7.25
2023-03-29T09:44:12.698Z,7.25
2023-03-29T09:46:45.792Z,7.27
2023-03-29T09:49:19.129Z,7.29
2023-03-29T09:51:49.194Z,7.31
2023-03-29T09:54:17.680Z,7.32
2023-03-29T09:57:18.697Z,7.34
2023-03-29T09:59:48.699Z,7.37
2023-03-29T10:02:20.203Z,7.35
2023-03-29T10:04:55.547Z,7.34
2023-03-29T10:07:22.934Z,7.34
2023-03-29T10:09:56.342Z,7.33
2023-03-29T10:12:24.417Z,7.37
2023-03-29T10:14:54.249Z,7.34
2023-03-29T10:17:29.671Z,7.35
2023-03-29T10:20:00.942Z,7.34
2023-03-29T10:22:37.828Z,7.32
2023-03-29T10:25:13.555Z,7.33
2023-03-29T10:27:43.496Z,7.35
2023-03-29T10:30:18.934Z,7.35
2023-03-29T10:32:46.410Z,7.38
2023-03-29T10:35:21.648Z,7.41
2023-03-29T10:37:53.636Z,7.41
2023-03-29T10:40:26.292Z,7.42
2023-03-29T10:42:57.980Z,7.44
2023-03-29T10:45:35.042Z,7.45
2023-03-29T10:48:04.175Z,7.44
2023-03-29T10:50:38.298Z,7.46
2023-03-29T10:53:21.692Z,7.47
2023-03-29T10:56:07.881Z,7.48
2023-03-29T10:58:34.997Z,7.50
2023-03-29T11:01:03.109Z,7.49
2023-03-29T11:03:45.758Z,7.50
2023-03-29T11:06:34.930Z,7.52
2023-03-29T11:09:08.767Z,7.55
2023-03-29T11:12:15.151Z,7.56
2023-03-29T11:15:09.263Z,7.58
2023-03-29T11:17:53.645Z,7.56
2023-03-29T11:20:34.943Z,7.56
2023-03-29T11:23:16.751Z,7.56
2023-03-29T11:25:53.513Z,7.56
2023-03-29T11:28:42.408Z,7.58
2023-03-29T11:31:31.070Z,7.57
2023-03-29T11:34:15.769Z,7.58
2023-03-29T11:36:55.152Z,7.58
2023-03-29T11:39:47.150Z,7.58
2023-03-29T11:42:21.511Z,7.57
2023-03-29T11:44:54.649Z,7.55
2023-03-29T11:47:23.487Z,7.57
2023-03-29T11:49:58.476Z,7.56
2023-03-29T11:52:41.057Z,7.57
2023-03-29T11:55:23.777Z,7.57
2023-03-29T11:58:06.772Z,7.58
2023-03-29T12:00:58.025Z,7.61
2023-03-29T12:03:46.783Z,7.61
2023-03-29T12:06:20.399Z,7.61
2023-03-29T12:09:13.685Z,7.61
2023-03-29T12:11:59.348Z,7.63
2023-03-29T12:14:45.114Z,7.65
2023-03-29T12:17:18.290Z,7.67
2023-03-29T12:20:06.873Z,7.68
2023-03-29T12:22:38.742Z,7.68
2023-03-29T12:25:09.726Z,7.67
2023-03-29T12:27:52.913Z,7.64
2023-03-29T12:30:29.938Z,7.67
2023-03-29T12:33:27.967Z,7.65
2023-03-29T12:36:48.156Z,7.65
2023-03-29T12:39:36.939Z,7.68
2023-03-29T12:42:24.084Z,7.69
2023-03-29T12:45:20.670Z,7.68
2023-03-29T12:47:51.125Z,7.69
2023-03-29T12:50:34.996Z,7.71
2023-03-29T12:53:13.511Z,7.71
2023-03-29T12:55:43.705Z,7.74
2023-03-29T12:58:26.068Z,7.73
2023-03-29T13:01:34.007Z,7.73
2023-03-29T13:04:01.474Z,7.72
2023-03-29T13:06:53.746Z,7.73
2023-03-29T13:09:22.612Z,7.73
2023-03-29T13:11:59.758Z,7.75
2023-03-29T13:14:31.851Z,7.75
2023-03-29T13:17:18.314Z,7.71
2023-03-29T13:19:52.210Z,7.72
2023-03-29T13:22:44.318Z,7.72
2023-03-29T13:25:25.603Z,7.74
2023-03-29T13:28:21.718Z,7.73
2023-03-29T13:31:18.004Z,7.74
2023-03-29T13:33:57.620Z,7.75
2023-03-29T13:36:39.678Z,7.75
2023-03-29T13:39:07.698Z,7.75
2023-03-29T13:41:40.839Z,7.75
2023-03-29T13:44:23.246Z,7.81
2023-03-29T13:47:05.100Z,7.79
2023-03-29T13:49:34.207Z,7.79
2023-03-29T13:52:24.637Z,7.79
2023-03-29T13:55:02.011Z,7.78
2023-03-29T13:57:38.696Z,7.81
2023-03-29T14:00:12.015Z,7.79
2023-03-29T14:02:50.228Z,7.82
2023-03-29T14:05:21.833Z,7.82
2023-03-29T14:07:53.058Z,7.82
2023-03-29T14:10:27.663Z,7.83
2023-03-29T14:12:56.824Z,7.82
2023-03-29T14:15:27.790Z,7.84
2023-03-29T14:18:00.558Z,7.85
2023-03-29T14:20:28.806Z,7.86
2023-03-29T14:22:55.897Z,7.85
2023-03-29T14:25:23.119Z,7.86
2023-03-29T14:27:49.991Z,7.87
2023-03-29T14:30:27.684Z,7.85
2023-03-29T14:32:56.887Z,7.84
2023-03-29T14:35:31.321Z,7.86
2023-03-29T14:37:59.247Z,7.87
2023-03-29T14:40:27.909Z,7.86
2023-03-29T14:42:55.750Z,7.87
2023-03-29T14:45:25.765Z,7.86
2023-03-29T14:47:53.104Z,7.87
2023-03-29T14:50:28.620Z,7.89
2023-03-29T14:52:58.112Z,7.87
2023-03-29T14:55:25.358Z,7.86
2023-03-29T14:57:55.298Z,7.88
2023-03-29T15:00:30.348Z,7.88
2023-03-29T15:03:04.484Z,7.87
2023-03-29T15:05:42.503Z,7.90
2023-03-29T15:08:17.939Z,7.91
2023-03-29T15:10:45.147Z,7.90
2023-03-29T15:13:19.102Z,7.91
2023-03-29T15:15:46.442Z,7.91
2023-03-29T15:18:17.123Z,7.92
2023-03-29T15:20:45.205Z,7.93
2023-03-29T15:23:14.908Z,7.93
2023-03-29T15:25:58.279Z,7.92
2023-03-29T15:28:28.354Z,7.96
2023-03-29T15:33:38.443Z,7.96
2023-03-29T15:36:07.693Z,7.94
2023-03-29T15:38:44.092Z,7.92
2023-03-29T15:41:13.756Z,7.93
2023-03-29T15:43:41.474Z,7.97
2023-03-29T15:46:10.959Z,7.99
2023-03-29T15:48:37.858Z,7.98
2023-03-29T15:51:06.740Z,7.98
2023-03-29T15:53:34.111Z,7.97
2023-03-29T15:56:02.873Z,7.99
2023-03-29T15:58:32.615Z,8.00
2023-03-29T16:01:37.757Z,7.99
2023-03-29T16:04:12.099Z,8.02
2023-03-29T16:06:39.281Z,8.02
2023-03-29T16:09:07.224Z,8.03
2023-03-29T16:11:34.533Z,8.02
2023-03-29T16:14:03.041Z,8.02
2023-03-29T16:16:30.067Z,8.02
2023-03-29T16:18:56.912Z,8.03
2023-03-29T16:21:24.657Z,8.05
2023-03-29T16:23:51.816Z,8.02
2023-03-29T16:26:18.694Z,8.02
2023-03-29T16:28:45.652Z,8.02
2023-03-29T16:31:15.190Z,8.02
2023-03-29T16:33:42.226Z,8.04
2023-03-29T16:36:10.198Z,8.03
2023-03-29T16:38:37.221Z,8.02
2023-03-29T16:41:04.287Z,8.02
2023-03-29T16:43:31.714Z,8.05
2023-03-29T16:45:58.643Z,8.05
2023-03-29T16:48:27.190Z,8.03
2023-03-29T16:50:54.929Z,8.04
2023-03-29T16:53:23.747Z,8.06
2023-03-29T16:55:50.835Z,8.04
2023-03-29T16:58:17.846Z,8.04
2023-03-29T17:00:48.297Z,8.04
2023-03-29T17:03:16.459Z,8.09
2023-03-29T17:05:52.208Z,8.07
2023-03-29T17:08:21.315Z,8.06
2023-03-29T17:10:55.670Z,8.08
2023-03-29T17:13:24.168Z,8.08
2023-03-29T17:15:52.728Z,8.07
2023-03-29T17:18:24.876Z,8.07
2023-03-29T17:20:52.851Z,8.07
2023-03-29T17:23:19.827Z,8.09
2023-03-29T17:25:46.911Z,8.12
2023-03-29T17:28:17.016Z,8.11
2023-03-29T17:30:48.345Z,8.13
2023-03-29T17:33:15.947Z,8.11
2023-03-29T17:35:44.833Z,8.12
2023-03-29T17:38:12.666Z,8.13
2023-03-29T17:40:39.764Z,8.14
2023-03-29T17:43:06.775Z,8.14
2023-03-29T17:45:35.447Z,8.14
2023-03-29T17:48:05.593Z,8.14
2023-03-29T17:50:33.361Z,8.14
2023-03-29T17:53:00.355Z,8.15
2023-03-29T17:55:27.835Z,8.17
2023-03-29T17:57:55.628Z,8.17
2023-03-29T18:00:25.122Z,8.18
2023-03-29T18:02:53.350Z,8.16
2023-03-29T18:05:21.406Z,8.18
2023-03-29T18:07:49.013Z,8.18
2023-03-29T18:10:16.791Z,8.20
2023-03-29T18:12:45.352Z,8.17
2023-03-29T18:15:13.034Z,8.19
2023-03-29T18:17:41.126Z,8.18
2023-03-29T18:20:12.069Z,8.18
2023-03-29T18:22:42.732Z,8.19
2023-03-29T18:25:11.549Z,8.19
2023-03-29T18:27:39.907Z,8.19
2023-03-29T18:30:09.213Z,8.17
2023-03-29T18:32:37.162Z,8.21
2023-03-29T18:35:06.639Z,8.19
2023-03-29T18:37:34.294Z,8.20
2023-03-29T18:40:02.696Z,8.21
2023-03-29T18:42:30.280Z,8.18
2023-03-29T18:44:58.277Z,8.19
2023-03-29T18:47:26.019Z,8.18
2023-03-29T18:49:53.957Z,8.18
2023-03-29T18:52:21.623Z,8.19
2023-03-29T18:54:49.127Z,8.20
2023-03-29T18:57:16.099Z,8.23
2023-03-29T18:59:44.032Z,8.23
2023-03-29T19:02:11.480Z,8.23
2023-03-29T19:04:39.325Z,8.24
2023-03-29T19:07:06.955Z,8.28
2023-03-29T19:09:33.932Z,8.26
2023-03-29T19:12:00.764Z,8.24
2023-03-29T19:14:28.278Z,8.26
2023-03-29T19:16:55.786Z,8.29
2023-03-29T19:19:24.982Z,8.29
2023-03-29T19:21:52.999Z,8.28
2023-03-29T19:24:19.966Z,8.28
2023-03-29T19:26:48.045Z,8.28
2023-03-29T19:29:15.200Z,8.28
2023-03-29T19:31:42.178Z,8.27
2023-03-29T19:34:12.342Z,8.26
2023-03-29T19:36:39.897Z,8.28
2023-03-29T19:39:07.265Z,8.27
2023-03-29T19:41:34.178Z,8.28
2023-03-29T19:44:01.410Z,8.29
2023-03-29T19:46:29.088Z,8.28
2023-03-29T19:48:56.401Z,8.28
2023-03-29T19:51:24.033Z,8.29
2023-03-29T19:53:50.899Z,8.30
2023-03-29T19:56:18.123Z,8.29
2023-03-29T19:58:45.172Z,8.30
2023-03-29T20:01:12.627Z,8.30
2023-03-29T20:03:41.571Z,8.31
2023-03-29T20:06:10.865Z,8.29
2023-03-29T20:08:38.951Z,8.28
2023-03-29T20:11:10.588Z,8.30
2023-03-29T20:13:41.125Z,8.31
2023-03-29T20:16:11.118Z,8.31
2023-03-29T20:18:45.021Z,8.31
2023-03-29T20:21:14.231Z,8.32
2023-03-29T20:23:41.415Z,8.33
2023-03-29T20:26:08.651Z,8.34
2023-03-29T20:28:37.968Z,8.33
2023-03-29T20:31:08.271Z,8.33
2023-03-29T20:33:35.576Z,8.33
2023-03-29T20:36:02.783Z,8.33
2023-03-29T20:38:29.658Z,8.34
2023-03-29T20:40:56.660Z,8.34
2023-03-29T20:43:24.412Z,8.32
2023-03-29T20:45:53.923Z,8.32
2023-03-29T20:48:24.376Z,8.31
2023-03-29T20:50:51.985Z,8.32
2023-03-29T20:53:20.633Z,8.33
2023-03-29T20:55:48.240Z,8.31
2023-03-29T20:58:15.999Z,8.34
2023-03-29T21:00:43.955Z,8.32
2023-03-29T21:03:11.422Z,8.30
2023-03-29T21:05:38.994Z,8.30
2023-03-29T21:08:06.173Z,8.28
2023-03-29T21:10:33.510Z,8.28
2023-03-29T21:13:00.777Z,8.29
2023-03-29T21:15:30.531Z,8.28
2023-03-29T21:17:58.385Z,8.29
2023-03-29T21:20:25.764Z,8.29
2023-03-29T21:22:52.906Z,8.30
2023-03-29T21:25:19.889Z,8.30
2023-03-29T21:27:47.118Z,8.30
2023-03-29T21:30:14.200Z,8.30
2023-03-29T21:32:41.704Z,8.31
2023-03-29T21:35:09.512Z,8.30
2023-03-29T21:37:36.694Z,8.30
2023-03-29T21:40:10.756Z,8.32
2023-03-29T21:42:37.862Z,8.31
2023-03-29T21:45:05.179Z,8.29
2023-03-29T21:47:32.234Z,8.28
2023-03-29T21:49:59.038Z,8.24
2023-03-29T21:52:26.146Z,8.28
2023-03-29T21:54:52.975Z,8.29
2023-03-29T21:57:20.056Z,8.29
2023-03-29T21:59:46.974Z,8.31
2023-03-29T22:02:14.039Z,8.31
2023-03-29T22:05:33.934Z,8.33
2023-03-29T22:08:01.157Z,8.32
2023-03-29T22:10:28.054Z,8.31
2023-03-29T22:12:55.002Z,8.31
2023-03-29T22:15:22.015Z,8.32
2023-03-29T22:17:49.328Z,8.33
2023-03-29T22:20:18.573Z,8.33
2023-03-29T22:22:50.845Z,8.35
2023-03-29T22:25:19.295Z,8.35
2023-03-29T22:28:24.587Z,8.34
2023-03-29T22:30:51.567Z,8.36
2023-03-29T22:33:18.431Z,8.35
2023-03-29T22:35:45.768Z,8.37
2023-03-29T22:38:12.711Z,8.35
2023-03-29T22:40:42.666Z,8.34
2023-03-29T22:44:05.251Z,8.34
2023-03-29T22:46:32.584Z,8.34
2023-03-29T22:48:59.689Z,8.35
2023-03-29T22:51:27.524Z,8.35
2023-03-29T22:53:54.595Z,8.32
2023-03-29T22:56:22.100Z,8.31
2023-03-29T22:58:49.293Z,8.31
2023-03-29T23:01:16.270Z,8.31
2023-03-29T23:03:43.194Z,8.31
2023-03-29T23:06:10.361Z,8.32
2023-03-29T23:08:37.251Z,8.30
2023-03-29T23:11:04.928Z,8.29
2023-03-29T23:13:33.634Z,8.28
2023-03-29T23:16:01.855Z,8.28
2023-03-29T23:18:30.617Z,8.28
2023-03-29T23:20:59.110Z,8.26
2023-03-29T23:23:27.399Z,8.27
2023-03-29T23:25:55.944Z,8.26
2023-03-29T23:28:27.194Z,8.26
2023-03-29T23:31:06.408Z,8.23
2023-03-29T23:33:35.437Z,8.23
2023-03-29T23:36:04.997Z,8.21
2023-03-29T23:38:34.434Z,8.21
2023-03-29T23:41:03.859Z,8.20
2023-03-29T23:43:33.707Z,8.18
2023-03-29T23:46:05.944Z,8.19
2023-03-29T23:49:29.374Z,8.21
2023-03-29T23:52:02.802Z,8.20
2023-03-29T23:54:29.772Z,8.22
2023-03-29T23:56:56.624Z,8.20
2023-03-29T23:59:27.154Z,8.19
